桃園國際機場 - 塔臺(二站)

METAR RCTP 191700Z 19008KT 160V230 9999 FEW015 SCT040 BKN160 24/22 Q1009 NOSIG RMK A2981=

站台狀態:Offline
最後更新:2024-04-20 01:00:02